Whitney, Canada
Current Conditions -  °F | °C
As of 6:00 PM on Saturday 22 Nov 2014 (Local Time) from CYWA Reporting Station
Overcast Overcast  
Wind Chill: 36°   Ceiling: 1700
Heat Index: 36°   Visibility: 9mi
Dew Point: 28°   Wind: 2mph
Humidity: 75%   Direction: 230°SW
Pressure: 29.82"   Gusts: NA
Location:  45.5°N, 78.23°W
Report Text: CYWA 222300Z AUTO 23002KT 9SM OVC017 02/M02 A2982 RMK SLP104
Loading
Personal Weather Stations






























Interactive Weather Map New forecast layout! Learn more

10-Day Weather Forecast

Advertisements
Track Severe Weather on mobile